sensor_id;sensor_type;location;lat;lon;timestamp;temperature;humidity
32139;DHT22;18644;48.700;9.210;2023-02-28T00:00:20;2.10;46.90
32139;DHT22;18644;48.700;9.210;2023-02-28T00:02:49;2.00;47.00
32139;DHT22;18644;48.700;9.210;2023-02-28T00:05:18;2.00;47.00
32139;DHT22;18644;48.700;9.210;2023-02-28T00:07:47;2.00;47.10
32139;DHT22;18644;48.700;9.210;2023-02-28T00:10:16;2.00;47.10
32139;DHT22;18644;48.700;9.210;2023-02-28T00:12:46;2.00;47.30
32139;DHT22;18644;48.700;9.210;2023-02-28T00:15:13;1.90;47.30
32139;DHT22;18644;48.700;9.210;2023-02-28T00:17:40;2.00;47.40
32139;DHT22;18644;48.700;9.210;2023-02-28T00:20:10;1.90;47.40
32139;DHT22;18644;48.700;9.210;2023-02-28T00:22:39;1.90;47.40
32139;DHT22;18644;48.700;9.210;2023-02-28T00:25:08;1.90;47.50
32139;DHT22;18644;48.700;9.210;2023-02-28T00:27:38;1.90;47.60
32139;DHT22;18644;48.700;9.210;2023-02-28T00:30:07;1.90;47.60
32139;DHT22;18644;48.700;9.210;2023-02-28T00:32:35;1.80;47.60
32139;DHT22;18644;48.700;9.210;2023-02-28T00:35:03;1.80;47.60
32139;DHT22;18644;48.700;9.210;2023-02-28T00:37:32;1.80;47.70
32139;DHT22;18644;48.700;9.210;2023-02-28T00:39:59;1.80;47.80
32139;DHT22;18644;48.700;9.210;2023-02-28T00:42:26;1.80;47.80
32139;DHT22;18644;48.700;9.210;2023-02-28T00:44:53;1.80;47.90
32139;DHT22;18644;48.700;9.210;2023-02-28T00:47:20;1.70;47.80
32139;DHT22;18644;48.700;9.210;2023-02-28T00:49:47;1.70;47.90
32139;DHT22;18644;48.700;9.210;2023-02-28T00:52:14;1.70;47.90
32139;DHT22;18644;48.700;9.210;2023-02-28T00:54:42;1.70;48.00
32139;DHT22;18644;48.700;9.210;2023-02-28T00:57:09;1.70;48.00
32139;DHT22;18644;48.700;9.210;2023-02-28T00:59:35;1.70;48.00
32139;DHT22;18644;48.700;9.210;2023-02-28T01:02:02;1.70;48.10
32139;DHT22;18644;48.700;9.210;2023-02-28T01:04:29;1.70;48.10
32139;DHT22;18644;48.700;9.210;2023-02-28T01:06:56;1.60;48.10
32139;DHT22;18644;48.700;9.210;2023-02-28T01:09:23;1.60;48.20
32139;DHT22;18644;48.700;9.210;2023-02-28T01:11:51;1.60;48.30
32139;DHT22;18644;48.700;9.210;2023-02-28T01:14:18;1.60;48.30
32139;DHT22;18644;48.700;9.210;2023-02-28T01:16:45;1.60;48.40
32139;DHT22;18644;48.700;9.210;2023-02-28T01:19:12;1.60;48.50
32139;DHT22;18644;48.700;9.210;2023-02-28T01:21:40;1.60;48.70
32139;DHT22;18644;48.700;9.210;2023-02-28T01:24:07;1.60;48.70
32139;DHT22;18644;48.700;9.210;2023-02-28T01:26:34;1.50;48.70
32139;DHT22;18644;48.700;9.210;2023-02-28T01:29:03;1.60;48.80
32139;DHT22;18644;48.700;9.210;2023-02-28T01:31:29;1.50;48.90
32139;DHT22;18644;48.700;9.210;2023-02-28T01:33:56;1.50;48.90
32139;DHT22;18644;48.700;9.210;2023-02-28T01:36:24;1.50;48.90
32139;DHT22;18644;48.700;9.210;2023-02-28T01:38:51;1.50;49.00
32139;DHT22;18644;48.700;9.210;2023-02-28T01:41:20;1.50;49.10
32139;DHT22;18644;48.700;9.210;2023-02-28T01:44:01;1.50;49.10
32139;DHT22;18644;48.700;9.210;2023-02-28T01:46:31;1.50;49.20
32139;DHT22;18644;48.700;9.210;2023-02-28T01:49:04;1.50;49.30
32139;DHT22;18644;48.700;9.210;2023-02-28T01:51:37;1.50;49.30
32139;DHT22;18644;48.700;9.210;2023-02-28T01:54:08;1.50;49.30
32139;DHT22;18644;48.700;9.210;2023-02-28T01:56:41;1.50;49.40
32139;DHT22;18644;48.700;9.210;2023-02-28T01:59:16;1.50;49.40
32139;DHT22;18644;48.700;9.210;2023-02-28T02:01:47;1.50;49.40
32139;DHT22;18644;48.700;9.210;2023-02-28T02:04:15;1.50;49.50
32139;DHT22;18644;48.700;9.210;2023-02-28T02:06:43;1.50;49.50
32139;DHT22;18644;48.700;9.210;2023-02-28T02:09:12;1.50;49.60
32139;DHT22;18644;48.700;9.210;2023-02-28T02:11:41;1.50;49.70
32139;DHT22;18644;48.700;9.210;2023-02-28T02:14:40;1.50;49.70
32139;DHT22;18644;48.700;9.210;2023-02-28T02:17:21;1.50;49.90
32139;DHT22;18644;48.700;9.210;2023-02-28T02:20:23;1.40;49.80
32139;DHT22;18644;48.700;9.210;2023-02-28T02:26:38;1.40;50.00
32139;DHT22;18644;48.700;9.210;2023-02-28T02:29:43;1.40;50.00
32139;DHT22;18644;48.700;9.210;2023-02-28T02:32:37;1.40;50.20
32139;DHT22;18644;48.700;9.210;2023-02-28T02:35:16;1.40;50.10
32139;DHT22;18644;48.700;9.210;2023-02-28T02:37:50;1.40;50.10
32139;DHT22;18644;48.700;9.210;2023-02-28T02:40:21;1.40;50.20
32139;DHT22;18644;48.700;9.210;2023-02-28T02:42:52;1.40;50.30
32139;DHT22;18644;48.700;9.210;2023-02-28T02:45:25;1.40;50.40
32139;DHT22;18644;48.700;9.210;2023-02-28T02:47:55;1.40;50.50
32139;DHT22;18644;48.700;9.210;2023-02-28T02:50:29;1.50;50.60
32139;DHT22;18644;48.700;9.210;2023-02-28T02:53:00;1.40;50.60
32139;DHT22;18644;48.700;9.210;2023-02-28T02:55:28;1.50;50.70
32139;DHT22;18644;48.700;9.210;2023-02-28T02:57:58;1.40;50.70
32139;DHT22;18644;48.700;9.210;2023-02-28T03:00:30;1.50;50.70
32139;DHT22;18644;48.700;9.210;2023-02-28T03:02:59;1.50;50.80
32139;DHT22;18644;48.700;9.210;2023-02-28T03:05:32;1.50;50.80
32139;DHT22;18644;48.700;9.210;2023-02-28T03:08:03;1.50;50.80
32139;DHT22;18644;48.700;9.210;2023-02-28T03:10:36;1.50;50.90
32139;DHT22;18644;48.700;9.210;2023-02-28T03:13:19;1.50;50.80
32139;DHT22;18644;48.700;9.210;2023-02-28T03:16:20;1.60;50.90
32139;DHT22;18644;48.700;9.210;2023-02-28T03:19:05;1.60;51.00
32139;DHT22;18644;48.700;9.210;2023-02-28T03:21:45;1.60;50.90
32139;DHT22;18644;48.700;9.210;2023-02-28T03:24:22;1.60;50.90
32139;DHT22;18644;48.700;9.210;2023-02-28T03:26:57;1.60;51.00
32139;DHT22;18644;48.700;9.210;2023-02-28T03:29:31;1.60;51.00
32139;DHT22;18644;48.700;9.210;2023-02-28T03:32:05;1.60;51.10
32139;DHT22;18644;48.700;9.210;2023-02-28T03:34:43;1.60;51.20
32139;DHT22;18644;48.700;9.210;2023-02-28T03:37:17;1.60;51.10
32139;DHT22;18644;48.700;9.210;2023-02-28T03:39:49;1.60;51.20
32139;DHT22;18644;48.700;9.210;2023-02-28T03:42:18;1.70;51.30
32139;DHT22;18644;48.700;9.210;2023-02-28T03:44:50;1.70;51.40
32139;DHT22;18644;48.700;9.210;2023-02-28T03:47:22;1.70;51.20
32139;DHT22;18644;48.700;9.210;2023-02-28T03:49:55;1.70;51.20
32139;DHT22;18644;48.700;9.210;2023-02-28T03:52:28;1.70;51.30
32139;DHT22;18644;48.700;9.210;2023-02-28T03:55:01;1.70;51.30
32139;DHT22;18644;48.700;9.210;2023-02-28T03:57:37;1.70;51.40
32139;DHT22;18644;48.700;9.210;2023-02-28T04:00:10;1.70;51.40
32139;DHT22;18644;48.700;9.210;2023-02-28T04:02:41;1.80;51.50
32139;DHT22;18644;48.700;9.210;2023-02-28T04:05:08;1.80;51.50
32139;DHT22;18644;48.700;9.210;2023-02-28T04:07:36;1.80;51.50
32139;DHT22;18644;48.700;9.210;2023-02-28T04:10:05;1.80;51.60
32139;DHT22;18644;48.700;9.210;2023-02-28T04:12:32;1.80;51.60
32139;DHT22;18644;48.700;9.210;2023-02-28T04:14:59;1.80;51.60
32139;DHT22;18644;48.700;9.210;2023-02-28T04:17:26;1.90;51.80
32139;DHT22;18644;48.700;9.210;2023-02-28T04:19:54;1.80;51.70
32139;DHT22;18644;48.700;9.210;2023-02-28T04:22:22;1.90;51.70
32139;DHT22;18644;48.700;9.210;2023-02-28T04:24:52;1.90;51.70
32139;DHT22;18644;48.700;9.210;2023-02-28T04:27:20;1.90;51.80
32139;DHT22;18644;48.700;9.210;2023-02-28T04:29:47;1.90;51.80
32139;DHT22;18644;48.700;9.210;2023-02-28T04:32:14;1.90;51.80
32139;DHT22;18644;48.700;9.210;2023-02-28T04:34:40;1.90;51.80
32139;DHT22;18644;48.700;9.210;2023-02-28T04:37:07;1.90;51.90
32139;DHT22;18644;48.700;9.210;2023-02-28T04:39:35;1.90;51.90
32139;DHT22;18644;48.700;9.210;2023-02-28T04:42:04;1.90;51.90
32139;DHT22;18644;48.700;9.210;2023-02-28T04:44:31;2.00;52.00
32139;DHT22;18644;48.700;9.210;2023-02-28T04:46:58;1.90;51.90
32139;DHT22;18644;48.700;9.210;2023-02-28T04:49:25;2.00;52.00
32139;DHT22;18644;48.700;9.210;2023-02-28T04:51:52;2.00;51.90
32139;DHT22;18644;48.700;9.210;2023-02-28T04:54:19;2.00;52.00
32139;DHT22;18644;48.700;9.210;2023-02-28T04:56:46;2.00;52.50
32139;DHT22;18644;48.700;9.210;2023-02-28T04:59:16;2.00;52.00
32139;DHT22;18644;48.700;9.210;2023-02-28T05:01:46;2.00;52.00
32139;DHT22;18644;48.700;9.210;2023-02-28T05:04:14;2.00;52.00
32139;DHT22;18644;48.700;9.210;2023-02-28T05:06:42;2.00;52.10
32139;DHT22;18644;48.700;9.210;2023-02-28T05:09:09;2.00;52.20
32139;DHT22;18644;48.700;9.210;2023-02-28T05:11:37;2.00;52.10
32139;DHT22;18644;48.700;9.210;2023-02-28T05:14:07;2.10;52.20
32139;DHT22;18644;48.700;9.210;2023-02-28T05:16:39;2.00;52.20
32139;DHT22;18644;48.700;9.210;2023-02-28T05:19:06;2.10;52.20
32139;DHT22;18644;48.700;9.210;2023-02-28T05:21:34;2.10;52.20
32139;DHT22;18644;48.700;9.210;2023-02-28T05:24:03;2.10;52.20
32139;DHT22;18644;48.700;9.210;2023-02-28T05:26:34;2.10;52.40
32139;DHT22;18644;48.700;9.210;2023-02-28T05:29:01;2.00;52.40
32139;DHT22;18644;48.700;9.210;2023-02-28T05:31:28;2.10;52.40
32139;DHT22;18644;48.700;9.210;2023-02-28T05:33:56;2.10;52.40
32139;DHT22;18644;48.700;9.210;2023-02-28T05:36:24;2.10;52.40
32139;DHT22;18644;48.700;9.210;2023-02-28T05:38:51;2.10;52.50
32139;DHT22;18644;48.700;9.210;2023-02-28T05:41:19;2.10;52.50
32139;DHT22;18644;48.700;9.210;2023-02-28T05:43:47;2.10;52.50
32139;DHT22;18644;48.700;9.210;2023-02-28T05:46:15;2.10;52.50
32139;DHT22;18644;48.700;9.210;2023-02-28T05:48:42;2.10;52.50
32139;DHT22;18644;48.700;9.210;2023-02-28T05:51:14;2.10;52.50
32139;DHT22;18644;48.700;9.210;2023-02-28T05:53:41;2.20;52.60
32139;DHT22;18644;48.700;9.210;2023-02-28T05:56:08;2.20;52.60
32139;DHT22;18644;48.700;9.210;2023-02-28T05:58:35;2.20;52.60
32139;DHT22;18644;48.700;9.210;2023-02-28T06:01:21;2.20;52.70
32139;DHT22;18644;48.700;9.210;2023-02-28T06:03:58;2.20;52.60
32139;DHT22;18644;48.700;9.210;2023-02-28T06:06:28;2.20;52.60
32139;DHT22;18644;48.700;9.210;2023-02-28T06:08:56;2.20;52.60
32139;DHT22;18644;48.700;9.210;2023-02-28T06:11:23;2.20;52.60
32139;DHT22;18644;48.700;9.210;2023-02-28T06:13:53;2.20;52.60
32139;DHT22;18644;48.700;9.210;2023-02-28T06:16:21;2.20;52.70
32139;DHT22;18644;48.700;9.210;2023-02-28T06:18:48;2.20;52.70
32139;DHT22;18644;48.700;9.210;2023-02-28T06:21:15;2.20;52.70
32139;DHT22;18644;48.700;9.210;2023-02-28T06:23:44;2.20;52.80
32139;DHT22;18644;48.700;9.210;2023-02-28T06:26:11;2.20;52.70
32139;DHT22;18644;48.700;9.210;2023-02-28T06:28:38;2.20;52.70
32139;DHT22;18644;48.700;9.210;2023-02-28T06:31:07;2.20;52.70
32139;DHT22;18644;48.700;9.210;2023-02-28T06:33:34;2.30;52.80
32139;DHT22;18644;48.700;9.210;2023-02-28T06:36:02;2.30;52.70
32139;DHT22;18644;48.700;9.210;2023-02-28T06:38:29;2.20;52.70
32139;DHT22;18644;48.700;9.210;2023-02-28T06:41:00;2.30;52.80
32139;DHT22;18644;48.700;9.210;2023-02-28T06:43:29;2.30;52.80
32139;DHT22;18644;48.700;9.210;2023-02-28T06:45:59;2.30;53.30
32139;DHT22;18644;48.700;9.210;2023-02-28T06:48:27;2.30;52.90
32139;DHT22;18644;48.700;9.210;2023-02-28T06:51:01;2.30;52.80
32139;DHT22;18644;48.700;9.210;2023-02-28T06:53:29;2.30;52.80
32139;DHT22;18644;48.700;9.210;2023-02-28T06:55:56;2.30;52.70
32139;DHT22;18644;48.700;9.210;2023-02-28T06:58:24;2.40;52.80
32139;DHT22;18644;48.700;9.210;2023-02-28T07:00:52;2.40;52.80
32139;DHT22;18644;48.700;9.210;2023-02-28T07:03:19;2.40;52.80
32139;DHT22;18644;48.700;9.210;2023-02-28T07:05:47;2.40;52.70
32139;DHT22;18644;48.700;9.210;2023-02-28T07:08:14;2.40;52.70
32139;DHT22;18644;48.700;9.210;2023-02-28T07:10:41;2.40;52.70
32139;DHT22;18644;48.700;9.210;2023-02-28T07:13:08;2.50;52.80
32139;DHT22;18644;48.700;9.210;2023-02-28T07:15:37;2.50;52.80
32139;DHT22;18644;48.700;9.210;2023-02-28T07:18:05;2.50;52.70
32139;DHT22;18644;48.700;9.210;2023-02-28T07:20:32;2.50;52.60
32139;DHT22;18644;48.700;9.210;2023-02-28T07:22:59;2.60;52.70
32139;DHT22;18644;48.700;9.210;2023-02-28T07:25:27;2.60;52.60
32139;DHT22;18644;48.700;9.210;2023-02-28T07:27:55;2.60;52.60
32139;DHT22;18644;48.700;9.210;2023-02-28T07:30:24;2.60;52.50
32139;DHT22;18644;48.700;9.210;2023-02-28T07:32:52;2.60;52.50
32139;DHT22;18644;48.700;9.210;2023-02-28T07:35:21;2.60;52.50
32139;DHT22;18644;48.700;9.210;2023-02-28T07:37:48;2.60;52.50
32139;DHT22;18644;48.700;9.210;2023-02-28T07:40:15;2.70;52.40
32139;DHT22;18644;48.700;9.210;2023-02-28T07:42:44;2.70;52.40
32139;DHT22;18644;48.700;9.210;2023-02-28T07:45:11;2.70;52.40
32139;DHT22;18644;48.700;9.210;2023-02-28T07:47:39;2.70;52.40
32139;DHT22;18644;48.700;9.210;2023-02-28T07:50:09;2.70;52.40
32139;DHT22;18644;48.700;9.210;2023-02-28T07:52:38;2.80;52.40
32139;DHT22;18644;48.700;9.210;2023-02-28T07:55:08;2.80;52.40
32139;DHT22;18644;48.700;9.210;2023-02-28T07:57:35;2.80;52.30
32139;DHT22;18644;48.700;9.210;2023-02-28T08:00:03;2.80;52.40
32139;DHT22;18644;48.700;9.210;2023-02-28T08:02:31;2.80;52.30
32139;DHT22;18644;48.700;9.210;2023-02-28T08:04:58;2.90;52.30
32139;DHT22;18644;48.700;9.210;2023-02-28T08:07:27;2.90;52.30
32139;DHT22;18644;48.700;9.210;2023-02-28T08:09:54;3.00;52.30
32139;DHT22;18644;48.700;9.210;2023-02-28T08:12:21;2.90;52.20
32139;DHT22;18644;48.700;9.210;2023-02-28T08:14:48;3.00;52.20
32139;DHT22;18644;48.700;9.210;2023-02-28T08:17:15;3.00;52.20
32139;DHT22;18644;48.700;9.210;2023-02-28T08:19:42;3.00;52.20
32139;DHT22;18644;48.700;9.210;2023-02-28T08:22:09;3.10;52.20
32139;DHT22;18644;48.700;9.210;2023-02-28T08:24:37;3.10;52.20
32139;DHT22;18644;48.700;9.210;2023-02-28T08:27:04;3.10;52.20
32139;DHT22;18644;48.700;9.210;2023-02-28T08:29:31;3.20;52.20
32139;DHT22;18644;48.700;9.210;2023-02-28T08:31:58;3.20;52.10
32139;DHT22;18644;48.700;9.210;2023-02-28T08:34:25;3.20;52.10
32139;DHT22;18644;48.700;9.210;2023-02-28T08:36:52;3.30;52.10
32139;DHT22;18644;48.700;9.210;2023-02-28T08:39:19;3.30;52.10
32139;DHT22;18644;48.700;9.210;2023-02-28T08:41:47;3.30;52.00
32139;DHT22;18644;48.700;9.210;2023-02-28T08:44:14;3.30;52.00
32139;DHT22;18644;48.700;9.210;2023-02-28T08:46:41;3.40;52.00
32139;DHT22;18644;48.700;9.210;2023-02-28T08:49:10;3.40;52.00
32139;DHT22;18644;48.700;9.210;2023-02-28T08:51:39;3.50;52.00
32139;DHT22;18644;48.700;9.210;2023-02-28T08:54:05;3.50;51.90
32139;DHT22;18644;48.700;9.210;2023-02-28T08:56:33;3.50;51.80
32139;DHT22;18644;48.700;9.210;2023-02-28T08:59:01;3.60;51.90
32139;DHT22;18644;48.700;9.210;2023-02-28T09:01:28;3.60;51.80
32139;DHT22;18644;48.700;9.210;2023-02-28T09:03:57;3.70;51.80
32139;DHT22;18644;48.700;9.210;2023-02-28T09:06:26;3.70;51.80
32139;DHT22;18644;48.700;9.210;2023-02-28T09:08:56;3.70;51.70
32139;DHT22;18644;48.700;9.210;2023-02-28T09:11:25;3.80;51.50
32139;DHT22;18644;48.700;9.210;2023-02-28T09:13:53;3.80;51.40
32139;DHT22;18644;48.700;9.210;2023-02-28T09:16:25;3.80;51.30
32139;DHT22;18644;48.700;9.210;2023-02-28T09:18:53;3.80;51.40
32139;DHT22;18644;48.700;9.210;2023-02-28T09:21:20;3.80;51.40
32139;DHT22;18644;48.700;9.210;2023-02-28T09:23:49;3.80;52.00
32139;DHT22;18644;48.700;9.210;2023-02-28T09:26:22;3.90;51.60
32139;DHT22;18644;48.700;9.210;2023-02-28T09:28:50;3.90;51.50
32139;DHT22;18644;48.700;9.210;2023-02-28T09:31:21;3.90;51.50
32139;DHT22;18644;48.700;9.210;2023-02-28T09:33:52;4.00;51.40
32139;DHT22;18644;48.700;9.210;2023-02-28T09:36:21;4.00;51.40
32139;DHT22;18644;48.700;9.210;2023-02-28T09:38:49;4.10;51.40
32139;DHT22;18644;48.700;9.210;2023-02-28T09:41:21;4.10;51.30
32139;DHT22;18644;48.700;9.210;2023-02-28T09:43:51;4.20;51.30
32139;DHT22;18644;48.700;9.210;2023-02-28T09:46:32;4.20;51.20
32139;DHT22;18644;48.700;9.210;2023-02-28T09:49:04;4.20;51.00
32139;DHT22;18644;48.700;9.210;2023-02-28T09:51:37;4.20;51.10
32139;DHT22;18644;48.700;9.210;2023-02-28T09:54:14;4.30;51.10
32139;DHT22;18644;48.700;9.210;2023-02-28T09:56:45;4.30;51.00
32139;DHT22;18644;48.700;9.210;2023-02-28T09:59:20;4.30;51.10
32139;DHT22;18644;48.700;9.210;2023-02-28T10:02:03;4.40;51.10
32139;DHT22;18644;48.700;9.210;2023-02-28T10:04:42;4.40;51.00
32139;DHT22;18644;48.700;9.210;2023-02-28T10:07:25;4.50;50.80
32139;DHT22;18644;48.700;9.210;2023-02-28T10:10:07;4.50;50.70
32139;DHT22;18644;48.700;9.210;2023-02-28T10:12:45;4.60;50.70
32139;DHT22;18644;48.700;9.210;2023-02-28T10:15:14;4.60;50.60
32139;DHT22;18644;48.700;9.210;2023-02-28T10:17:45;4.70;50.60
32139;DHT22;18644;48.700;9.210;2023-02-28T10:20:18;4.70;50.70
32139;DHT22;18644;48.700;9.210;2023-02-28T10:22:53;4.80;50.70
32139;DHT22;18644;48.700;9.210;2023-02-28T10:25:26;4.90;50.60
32139;DHT22;18644;48.700;9.210;2023-02-28T10:27:58;5.00;50.50
32139;DHT22;18644;48.700;9.210;2023-02-28T10:30:31;5.00;50.20
32139;DHT22;18644;48.700;9.210;2023-02-28T10:32:58;5.10;50.10
32139;DHT22;18644;48.700;9.210;2023-02-28T10:35:27;5.10;50.10
32139;DHT22;18644;48.700;9.210;2023-02-28T10:37:56;5.10;50.00
32139;DHT22;18644;48.700;9.210;2023-02-28T10:40:31;5.20;49.90
32139;DHT22;18644;48.700;9.210;2023-02-28T10:43:02;5.20;49.80
32139;DHT22;18644;48.700;9.210;2023-02-28T10:45:33;5.30;49.80
32139;DHT22;18644;48.700;9.210;2023-02-28T10:48:04;5.40;49.70
32139;DHT22;18644;48.700;9.210;2023-02-28T10:50:43;5.40;49.70
32139;DHT22;18644;48.700;9.210;2023-02-28T10:53:44;5.50;49.60
32139;DHT22;18644;48.700;9.210;2023-02-28T10:56:17;5.50;49.30
32139;DHT22;18644;48.700;9.210;2023-02-28T10:58:49;5.60;49.40
32139;DHT22;18644;48.700;9.210;2023-02-28T11:01:20;5.70;49.40
32139;DHT22;18644;48.700;9.210;2023-02-28T11:03:48;5.70;49.00
32139;DHT22;18644;48.700;9.210;2023-02-28T11:06:20;5.80;49.00
32139;DHT22;18644;48.700;9.210;2023-02-28T11:08:51;5.80;49.50
32139;DHT22;18644;48.700;9.210;2023-02-28T11:11:22;5.90;48.90
32139;DHT22;18644;48.700;9.210;2023-02-28T11:13:53;6.00;49.10
32139;DHT22;18644;48.700;9.210;2023-02-28T11:16:22;6.10;49.50
32139;DHT22;18644;48.700;9.210;2023-02-28T11:18:59;6.30;49.80
32139;DHT22;18644;48.700;9.210;2023-02-28T11:21:30;6.50;50.10
32139;DHT22;18644;48.700;9.210;2023-02-28T11:24:05;6.80;50.00
32139;DHT22;18644;48.700;9.210;2023-02-28T11:26:43;7.10;49.70
32139;DHT22;18644;48.700;9.210;2023-02-28T11:29:17;7.40;50.30
32139;DHT22;18644;48.700;9.210;2023-02-28T11:32:13;7.70;49.40
32139;DHT22;18644;48.700;9.210;2023-02-28T11:34:45;7.90;48.70
32139;DHT22;18644;48.700;9.210;2023-02-28T11:37:16;8.10;48.50
32139;DHT22;18644;48.700;9.210;2023-02-28T11:39:45;8.30;48.40
32139;DHT22;18644;48.700;9.210;2023-02-28T11:42:32;8.50;48.10
32139;DHT22;18644;48.700;9.210;2023-02-28T11:45:36;8.60;47.60
32139;DHT22;18644;48.700;9.210;2023-02-28T11:48:17;8.80;47.80
32139;DHT22;18644;48.700;9.210;2023-02-28T11:51:03;9.00;47.70
32139;DHT22;18644;48.700;9.210;2023-02-28T11:53:57;9.20;47.60
32139;DHT22;18644;48.700;9.210;2023-02-28T11:56:35;9.50;47.30
32139;DHT22;18644;48.700;9.210;2023-02-28T11:59:39;9.70;46.90
32139;DHT22;18644;48.700;9.210;2023-02-28T12:02:25;9.80;46.20
32139;DHT22;18644;48.700;9.210;2023-02-28T12:05:10;9.90;46.20
32139;DHT22;18644;48.700;9.210;2023-02-28T12:07:51;10.10;46.10
32139;DHT22;18644;48.700;9.210;2023-02-28T12:10:28;10.20;45.90
32139;DHT22;18644;48.700;9.210;2023-02-28T12:13:11;10.30;45.90
32139;DHT22;18644;48.700;9.210;2023-02-28T12:16:04;10.50;45.20
32139;DHT22;18644;48.700;9.210;2023-02-28T12:18:58;10.50;44.80
32139;DHT22;18644;48.700;9.210;2023-02-28T12:21:38;10.60;44.70
32139;DHT22;18644;48.700;9.210;2023-02-28T12:24:39;10.70;44.60
32139;DHT22;18644;48.700;9.210;2023-02-28T12:27:21;10.80;44.70
32139;DHT22;18644;48.700;9.210;2023-02-28T12:29:55;10.90;44.80
32139;DHT22;18644;48.700;9.210;2023-02-28T12:32:27;11.00;44.50
32139;DHT22;18644;48.700;9.210;2023-02-28T12:35:01;11.10;43.80
32139;DHT22;18644;48.700;9.210;2023-02-28T12:37:32;11.20;43.70
32139;DHT22;18644;48.700;9.210;2023-02-28T12:40:07;11.20;43.30
32139;DHT22;18644;48.700;9.210;2023-02-28T12:42:44;11.20;43.20
32139;DHT22;18644;48.700;9.210;2023-02-28T12:45:17;11.20;43.20
32139;DHT22;18644;48.700;9.210;2023-02-28T12:47:49;11.20;42.40
32139;DHT22;18644;48.700;9.210;2023-02-28T12:50:18;11.20;42.20
32139;DHT22;18644;48.700;9.210;2023-02-28T12:52:51;11.10;42.00
32139;DHT22;18644;48.700;9.210;2023-02-28T12:55:26;11.10;42.20
32139;DHT22;18644;48.700;9.210;2023-02-28T12:58:03;11.10;42.40
32139;DHT22;18644;48.700;9.210;2023-02-28T13:00:36;11.20;42.30
32139;DHT22;18644;48.700;9.210;2023-02-28T13:06:45;11.30;42.10
32139;DHT22;18644;48.700;9.210;2023-02-28T13:09:21;11.30;41.90
32139;DHT22;18644;48.700;9.210;2023-02-28T13:11:49;11.30;41.90
32139;DHT22;18644;48.700;9.210;2023-02-28T13:14:24;11.30;41.80
32139;DHT22;18644;48.700;9.210;2023-02-28T13:17:10;11.30;41.90
32139;DHT22;18644;48.700;9.210;2023-02-28T13:19:40;11.30;42.00
32139;DHT22;18644;48.700;9.210;2023-02-28T13:22:18;11.40;41.90
32139;DHT22;18644;48.700;9.210;2023-02-28T13:24:48;11.40;41.40
32139;DHT22;18644;48.700;9.210;2023-02-28T13:27:32;11.50;41.80
32139;DHT22;18644;48.700;9.210;2023-02-28T13:33:30;11.60;41.60
32139;DHT22;18644;48.700;9.210;2023-02-28T13:36:08;11.60;41.90
32139;DHT22;18644;48.700;9.210;2023-02-28T13:38:41;11.60;41.50
32139;DHT22;18644;48.700;9.210;2023-02-28T13:44:21;11.80;41.70
32139;DHT22;18644;48.700;9.210;2023-02-28T13:47:23;11.80;41.60
32139;DHT22;18644;48.700;9.210;2023-02-28T13:49:56;11.90;41.40
32139;DHT22;18644;48.700;9.210;2023-02-28T13:52:45;11.90;41.70
32139;DHT22;18644;48.700;9.210;2023-02-28T13:55:27;12.00;41.90
32139;DHT22;18644;48.700;9.210;2023-02-28T13:58:08;12.10;41.40
32139;DHT22;18644;48.700;9.210;2023-02-28T14:00:51;12.20;41.40
32139;DHT22;18644;48.700;9.210;2023-02-28T14:03:41;12.20;41.00
32139;DHT22;18644;48.700;9.210;2023-02-28T14:06:22;12.10;40.40
32139;DHT22;18644;48.700;9.210;2023-02-28T14:08:55;12.10;40.30
32139;DHT22;18644;48.700;9.210;2023-02-28T14:11:28;12.00;40.20
32139;DHT22;18644;48.700;9.210;2023-02-28T14:13:57;12.00;40.10
32139;DHT22;18644;48.700;9.210;2023-02-28T14:16:25;12.00;40.50
32139;DHT22;18644;48.700;9.210;2023-02-28T14:18:58;12.00;40.40
32139;DHT22;18644;48.700;9.210;2023-02-28T14:21:28;11.90;40.30
32139;DHT22;18644;48.700;9.210;2023-02-28T14:27:29;11.90;39.90
32139;DHT22;18644;48.700;9.210;2023-02-28T14:30:26;11.90;40.40
32139;DHT22;18644;48.700;9.210;2023-02-28T14:33:26;12.00;40.00
32139;DHT22;18644;48.700;9.210;2023-02-28T14:36:10;12.00;39.60
32139;DHT22;18644;48.700;9.210;2023-02-28T14:38:45;11.90;40.00
32139;DHT22;18644;48.700;9.210;2023-02-28T14:41:21;11.90;40.00
32139;DHT22;18644;48.700;9.210;2023-02-28T14:43:52;11.80;39.50
32139;DHT22;18644;48.700;9.210;2023-02-28T14:46:22;11.90;39.70
32139;DHT22;18644;48.700;9.210;2023-02-28T14:48:50;11.80;39.70
32139;DHT22;18644;48.700;9.210;2023-02-28T14:51:21;11.90;39.50
32139;DHT22;18644;48.700;9.210;2023-02-28T14:53:57;11.80;39.40
32139;DHT22;18644;48.700;9.210;2023-02-28T14:56:26;11.90;39.40
32139;DHT22;18644;48.700;9.210;2023-02-28T14:58:56;11.90;39.50
32139;DHT22;18644;48.700;9.210;2023-02-28T15:01:24;11.80;39.20
32139;DHT22;18644;48.700;9.210;2023-02-28T15:04:00;11.80;39.20
32139;DHT22;18644;48.700;9.210;2023-02-28T15:06:28;11.80;38.90
32139;DHT22;18644;48.700;9.210;2023-02-28T15:09:14;11.70;39.10
32139;DHT22;18644;48.700;9.210;2023-02-28T15:11:45;11.70;39.00
32139;DHT22;18644;48.700;9.210;2023-02-28T15:14:20;11.70;39.50
32139;DHT22;18644;48.700;9.210;2023-02-28T15:16:51;11.80;39.70
32139;DHT22;18644;48.700;9.210;2023-02-28T15:19:22;11.80;39.70
32139;DHT22;18644;48.700;9.210;2023-02-28T15:21:53;11.80;39.80
32139;DHT22;18644;48.700;9.210;2023-02-28T15:24:30;11.90;39.80
32139;DHT22;18644;48.700;9.210;2023-02-28T15:27:04;11.90;39.60
32139;DHT22;18644;48.700;9.210;2023-02-28T15:29:41;11.90;39.20
32139;DHT22;18644;48.700;9.210;2023-02-28T15:32:24;11.80;38.90
32139;DHT22;18644;48.700;9.210;2023-02-28T15:34:54;11.70;38.60
32139;DHT22;18644;48.700;9.210;2023-02-28T15:37:39;11.60;38.50
32139;DHT22;18644;48.700;9.210;2023-02-28T15:43:04;11.40;38.50
32139;DHT22;18644;48.700;9.210;2023-02-28T15:45:36;11.30;38.60
32139;DHT22;18644;48.700;9.210;2023-02-28T15:48:15;11.20;38.70
32139;DHT22;18644;48.700;9.210;2023-02-28T15:50:49;11.10;38.80
32139;DHT22;18644;48.700;9.210;2023-02-28T15:53:21;11.10;39.00
32139;DHT22;18644;48.700;9.210;2023-02-28T15:56:02;11.10;39.20
32139;DHT22;18644;48.700;9.210;2023-02-28T15:58:31;11.10;39.20
32139;DHT22;18644;48.700;9.210;2023-02-28T16:01:15;11.00;39.40
32139;DHT22;18644;48.700;9.210;2023-02-28T16:03:46;11.00;39.30
32139;DHT22;18644;48.700;9.210;2023-02-28T16:06:35;11.00;39.20
32139;DHT22;18644;48.700;9.210;2023-02-28T16:09:06;11.00;39.10
32139;DHT22;18644;48.700;9.210;2023-02-28T16:11:38;11.00;39.10
32139;DHT22;18644;48.700;9.210;2023-02-28T16:14:13;10.90;39.10
32139;DHT22;18644;48.700;9.210;2023-02-28T16:16:43;10.90;39.20
32139;DHT22;18644;48.700;9.210;2023-02-28T16:19:12;10.80;39.30
32139;DHT22;18644;48.700;9.210;2023-02-28T16:21:39;10.80;39.20
32139;DHT22;18644;48.700;9.210;2023-02-28T16:24:06;10.70;39.10
32139;DHT22;18644;48.700;9.210;2023-02-28T16:26:33;10.60;39.10
32139;DHT22;18644;48.700;9.210;2023-02-28T16:29:03;10.60;39.00
32139;DHT22;18644;48.700;9.210;2023-02-28T16:31:31;10.50;39.20
32139;DHT22;18644;48.700;9.210;2023-02-28T16:34:00;10.40;39.30